Time;durP1;ratioP1;P1;durP2;ratioP2;P2;SDS_P1;SDS_P2;PMS_P1;PMS_P2;Temp;Humidity;BMP_temperature;BMP_pressure;BME280_temperature;BME280_humidity;BME280_pressure;Samples;Min_cycle;Max_cycle;Signal;HPM_P1;HPM_P2
2023/12/11 00:00:26;;;;;;;4.70;1.63;;;7.00;69.80;;;;;;6277494;22;20197;-91
2023/12/11 00:02:53;;;;;;;2.80;1.60;;;7.10;70.40;;;;;;6277540;22;20196;-91
2023/12/11 00:05:21;;;;;;;3.35;1.30;;;7.10;70.50;;;;;;6277831;22;20553;-91
2023/12/11 00:07:48;;;;;;;3.35;1.50;;;7.10;70.70;;;;;;6276977;22;20166;-90
2023/12/11 00:10:15;;;;;;;2.88;1.67;;;7.20;70.60;;;;;;6277976;22;20245;-90
2023/12/11 00:12:42;;;;;;;2.95;1.50;;;7.30;70.90;;;;;;6278544;22;20162;-90
2023/12/11 00:15:10;;;;;;;3.90;1.67;;;7.30;71.60;;;;;;6278352;22;20189;-88
2023/12/11 00:17:37;;;;;;;4.20;1.88;;;7.30;70.80;;;;;;6277506;22;20240;-89
2023/12/11 00:20:05;;;;;;;4.05;1.52;;;7.30;70.60;;;;;;6278373;22;20169;-88
2023/12/11 00:22:33;;;;;;;2.92;1.50;;;7.40;70.70;;;;;;6278392;22;20165;-88
2023/12/11 00:25:01;;;;;;;3.47;1.55;;;7.40;71.00;;;;;;6278210;22;20204;-89
2023/12/11 00:27:28;;;;;;;4.65;1.60;;;7.50;71.40;;;;;;6277789;22;20617;-88
2023/12/11 00:29:55;;;;;;;4.47;2.15;;;7.50;71.90;;;;;;6277743;22;20197;-85
2023/12/11 00:32:22;;;;;;;4.20;2.33;;;7.50;72.40;;;;;;6277888;22;20166;-88
2023/12/11 00:34:49;;;;;;;3.05;1.73;;;7.60;72.70;;;;;;6278135;22;20170;-88
2023/12/11 00:37:17;;;;;;;4.00;2.05;;;7.60;72.80;;;;;;6277386;22;20639;-87
2023/12/11 00:39:45;;;;;;;3.10;1.55;;;7.60;73.20;;;;;;6277725;22;20523;-88
2023/12/11 00:42:12;;;;;;;4.13;2.58;;;7.60;73.80;;;;;;6277941;22;20201;-88
2023/12/11 00:44:39;;;;;;;4.03;1.35;;;7.70;74.60;;;;;;6277496;22;20189;-88
2023/12/11 00:47:06;;;;;;;4.50;1.90;;;7.70;75.00;;;;;;6277713;22;20276;-88
2023/12/11 00:49:33;;;;;;;3.38;1.40;;;7.80;75.20;;;;;;6277680;22;20162;-88
2023/12/11 00:52:00;;;;;;;4.40;1.70;;;7.80;75.50;;;;;;6277801;22;20481;-88
2023/12/11 00:54:27;;;;;;;2.55;1.20;;;7.80;77.80;;;;;;6277650;22;20240;-89
2023/12/11 00:56:55;;;;;;;3.20;1.25;;;7.90;80.00;;;;;;6277554;22;20193;-89
2023/12/11 00:59:22;;;;;;;2.58;1.00;;;8.00;82.30;;;;;;6277914;22;20162;-88
2023/12/11 01:01:49;;;;;;;2.13;0.90;;;8.10;84.50;;;;;;6277937;22;20192;-88
2023/12/11 01:04:16;;;;;;;3.25;0.98;;;8.20;86.70;;;;;;6278027;22;20245;-89
2023/12/11 01:06:43;;;;;;;1.92;0.77;;;8.30;88.90;;;;;;6277876;22;20225;-88
2023/12/11 01:09:10;;;;;;;2.00;0.98;;;8.40;90.00;;;;;;6277159;22;20162;-90
2023/12/11 01:11:37;;;;;;;2.30;1.00;;;8.40;90.80;;;;;;6277863;22;20248;-90
2023/12/11 01:14:05;;;;;;;2.70;0.70;;;8.60;91.30;;;;;;6277862;22;20193;-91
2023/12/11 01:16:32;;;;;;;1.70;0.60;;;8.60;91.60;;;;;;6277743;22;20173;-89
2023/12/11 01:18:59;;;;;;;1.80;0.75;;;8.70;91.60;;;;;;6277771;22;20193;-90
2023/12/11 01:21:26;;;;;;;1.83;0.90;;;8.80;91.70;;;;;;6277839;22;20197;-90
2023/12/11 01:23:53;;;;;;;2.55;0.80;;;8.90;91.40;;;;;;6277723;22;20193;-90
2023/12/11 01:26:20;;;;;;;1.80;0.80;;;8.90;91.50;;;;;;6277709;22;20185;-89
2023/12/11 01:28:46;;;;;;;3.03;0.80;;;8.90;91.40;;;;;;6277438;22;20245;-89
2023/12/11 01:31:15;;;;;;;3.83;0.80;;;8.90;91.40;;;;;;6277678;22;20245;-90
2023/12/11 01:33:42;;;;;;;2.53;1.00;;;9.00;91.40;;;;;;6277656;22;20178;-88
2023/12/11 01:36:09;;;;;;;3.85;0.60;;;9.00;91.40;;;;;;6277735;22;20192;-84
2023/12/11 01:38:36;;;;;;;2.55;0.70;;;9.00;91.40;;;;;;6276980;22;20631;-90
2023/12/11 01:41:03;;;;;;;2.20;0.80;;;9.00;91.80;;;;;;6277119;22;20200;-88
2023/12/11 01:43:30;;;;;;;1.90;0.70;;;9.00;91.90;;;;;;6277516;22;20240;-90
2023/12/11 01:46:12;;;;;;;1.80;0.80;;;9.00;92.10;;;;;;6277660;22;20276;-90
2023/12/11 01:48:41;;;;;;;1.70;0.70;;;9.00;92.40;;;;;;6277123;22;20251;-91
2023/12/11 01:51:10;;;;;;;2.10;0.80;;;9.10;92.60;;;;;;6277002;22;20620;-91
2023/12/11 01:53:37;;;;;;;1.85;0.60;;;9.10;92.70;;;;;;6276983;22;20166;-87
2023/12/11 01:56:04;;;;;;;1.85;0.70;;;9.20;92.80;;;;;;6277380;22;20166;-90
2023/12/11 01:58:31;;;;;;;2.10;0.70;;;9.20;92.60;;;;;;6276902;22;20181;-91
2023/12/11 02:00:59;;;;;;;1.70;0.70;;;9.20;92.70;;;;;;6277677;22;20204;-91
2023/12/11 02:03:26;;;;;;;2.15;0.80;;;9.30;92.90;;;;;;6277169;22;20204;-92
2023/12/11 02:05:54;;;;;;;1.90;0.93;;;9.30;92.90;;;;;;6277170;22;20567;-94
2023/12/11 02:08:21;;;;;;;1.90;0.80;;;9.30;93.10;;;;;;6277045;22;20211;-93
2023/12/11 02:10:48;;;;;;;1.90;1.02;;;9.40;93.10;;;;;;6277196;22;20196;-90
2023/12/11 02:13:15;;;;;;;2.10;0.70;;;9.40;93.10;;;;;;6276869;22;20165;-91
2023/12/11 02:15:43;;;;;;;3.08;0.90;;;9.50;93.40;;;;;;6277160;22;20169;-91
2023/12/11 02:18:12;;;;;;;1.83;0.70;;;9.50;93.70;;;;;;6277090;22;20161;-90
2023/12/11 02:20:40;;;;;;;2.00;0.70;;;9.50;93.60;;;;;;6277320;22;20196;-92
2023/12/11 02:23:14;;;;;;;2.20;0.90;;;9.60;93.90;;;;;;6277179;22;20201;-91
2023/12/11 02:25:44;;;;;;;1.67;0.65;;;9.60;94.00;;;;;;6277116;22;20184;-92
2023/12/11 02:28:13;;;;;;;2.15;0.80;;;9.70;94.50;;;;;;6276290;22;20537;-91
2023/12/11 02:30:50;;;;;;;3.25;0.60;;;9.80;94.60;;;;;;6276247;22;20166;-94
2023/12/11 02:33:17;;;;;;;1.90;0.73;;;9.80;94.50;;;;;;6277091;22;20188;-89
2023/12/11 02:35:44;;;;;;;1.60;0.50;;;9.90;94.40;;;;;;6276564;22;20241;-92
2023/12/11 02:38:11;;;;;;;1.80;0.60;;;10.00;93.90;;;;;;6276046;22;20394;-93
2023/12/11 02:40:38;;;;;;;1.80;0.80;;;10.00;94.00;;;;;;6275968;22;20244;-93
2023/12/11 02:43:05;;;;;;;1.70;0.57;;;10.10;93.30;;;;;;6276589;22;20660;-94
2023/12/11 02:45:33;;;;;;;1.98;0.70;;;10.10;93.00;;;;;;6276934;22;20424;-92
2023/12/11 02:48:02;;;;;;;2.37;1.00;;;10.10;92.80;;;;;;6276246;22;20229;-91
2023/12/11 02:50:29;;;;;;;2.00;0.70;;;10.10;92.50;;;;;;6276777;22;20388;-92
2023/12/11 02:52:58;;;;;;;3.30;0.80;;;10.10;92.40;;;;;;6276988;22;20492;-92
2023/12/11 02:55:25;;;;;;;1.90;0.70;;;10.20;92.20;;;;;;6276845;22;20410;-92
2023/12/11 02:57:54;;;;;;;1.90;0.70;;;10.20;92.00;;;;;;6276430;22;20176;-93
2023/12/11 03:00:20;;;;;;;1.70;0.70;;;10.10;91.80;;;;;;6276222;22;20395;-90
2023/12/11 03:02:49;;;;;;;2.00;0.70;;;10.10;91.80;;;;;;6276340;22;20483;-92
2023/12/11 03:05:16;;;;;;;2.67;0.70;;;10.10;91.70;;;;;;6276460;22;20395;-90
2023/12/11 03:07:43;;;;;;;1.80;0.60;;;10.10;91.70;;;;;;6276771;22;20514;-93
2023/12/11 03:10:10;;;;;;;2.20;1.08;;;10.10;91.70;;;;;;6276549;22;20435;-91
2023/12/11 03:12:37;;;;;;;2.37;0.80;;;10.00;91.90;;;;;;6278406;22;20204;-92
2023/12/11 03:15:05;;;;;;;2.53;0.80;;;10.00;91.90;;;;;;6279070;22;20427;-91
2023/12/11 03:17:32;;;;;;;2.83;1.00;;;10.00;91.90;;;;;;6278673;22;20643;-92
2023/12/11 03:20:00;;;;;;;5.30;0.80;;;10.00;91.90;;;;;;6278381;22;20704;-89
2023/12/11 03:22:27;;;;;;;1.80;0.70;;;10.00;92.00;;;;;;6278720;22;20165;-89
2023/12/11 03:24:55;;;;;;;1.80;0.80;;;10.00;92.00;;;;;;6278376;22;20203;-92
2023/12/11 03:27:22;;;;;;;1.65;0.57;;;10.00;91.90;;;;;;6278790;22;20211;-91
2023/12/11 03:29:49;;;;;;;1.88;0.70;;;10.00;91.90;;;;;;6278650;22;20612;-91
2023/12/11 03:32:16;;;;;;;1.80;0.80;;;9.90;92.40;;;;;;6277859;22;20184;-93
2023/12/11 03:34:43;;;;;;;2.58;1.05;;;10.00;91.80;;;;;;6278661;22;20550;-91
2023/12/11 03:37:11;;;;;;;2.70;0.80;;;9.90;92.30;;;;;;6279028;22;20252;-93
2023/12/11 03:39:38;;;;;;;1.60;0.63;;;9.90;92.40;;;;;;6278287;22;20430;-93
2023/12/11 03:42:05;;;;;;;1.80;0.70;;;9.90;92.30;;;;;;6278024;22;20672;-90
2023/12/11 03:44:32;;;;;;;2.00;0.85;;;9.90;92.30;;;;;;6278465;22;20791;-91
2023/12/11 03:46:59;;;;;;;2.78;0.90;;;9.90;92.30;;;;;;6278144;22;20720;-91
2023/12/11 03:49:27;;;;;;;2.00;0.80;;;9.90;92.40;;;;;;6278698;22;20526;-93
2023/12/11 03:51:54;;;;;;;1.70;0.70;;;9.80;92.50;;;;;;6278395;22;20162;-92
2023/12/11 03:54:22;;;;;;;1.70;0.70;;;9.80;92.60;;;;;;6278615;22;20211;-92
2023/12/11 03:56:49;;;;;;;2.10;0.70;;;9.80;92.70;;;;;;6278754;22;20245;-91
2023/12/11 03:59:16;;;;;;;1.90;0.60;;;9.80;92.90;;;;;;6278369;22;20501;-91
2023/12/11 04:01:43;;;;;;;1.70;0.70;;;9.90;93.10;;;;;;6278432;22;20197;-93
2023/12/11 04:04:10;;;;;;;1.90;0.65;;;10.00;92.70;;;;;;6278067;22;20174;-91
2023/12/11 04:06:37;;;;;;;2.35;0.75;;;10.00;92.60;;;;;;6278303;22;20272;-89
2023/12/11 04:09:04;;;;;;;2.20;0.98;;;10.00;92.60;;;;;;6278621;22;20185;-92
2023/12/11 04:11:34;;;;;;;2.40;0.77;;;10.00;92.50;;;;;;6278229;22;20167;-91
2023/12/11 04:14:01;;;;;;;1.70;0.70;;;10.00;92.70;;;;;;6278345;22;20161;-90
2023/12/11 04:16:27;;;;;;;5.13;0.80;;;10.10;92.80;;;;;;6278554;22;20240;-92
2023/12/11 04:18:54;;;;;;;1.80;0.80;;;10.20;92.80;;;;;;6278390;22;20189;-91
2023/12/11 04:21:21;;;;;;;1.80;0.60;;;10.20;92.80;;;;;;6278213;22;20244;-92
2023/12/11 04:23:48;;;;;;;1.73;0.65;;;10.20;92.90;;;;;;6277247;22;20241;-91
2023/12/11 04:26:15;;;;;;;1.65;0.60;;;10.20;92.90;;;;;;6278238;22;20215;-91
2023/12/11 04:28:43;;;;;;;1.80;0.70;;;10.30;93.30;;;;;;6277881;22;20197;-91
2023/12/11 04:31:11;;;;;;;1.95;0.70;;;10.30;92.90;;;;;;6277219;22;20244;-91
2023/12/11 04:33:38;;;;;;;1.83;0.60;;;10.40;92.90;;;;;;6278256;22;20544;-91
2023/12/11 04:36:08;;;;;;;1.70;0.70;;;10.40;93.00;;;;;;6278163;22;20428;-93
2023/12/11 04:38:35;;;;;;;2.00;0.60;;;10.40;92.90;;;;;;6277716;22;20839;-90
2023/12/11 04:41:02;;;;;;;2.47;0.60;;;10.50;93.00;;;;;;6277560;22;20574;-90
2023/12/11 04:43:29;;;;;;;1.80;0.80;;;10.60;93.10;;;;;;6277665;22;20479;-90
2023/12/11 04:45:57;;;;;;;1.80;0.77;;;10.60;93.10;;;;;;6277593;22;20869;-90
2023/12/11 04:48:24;;;;;;;1.70;0.70;;;10.60;93.10;;;;;;6278062;22;20267;-90
2023/12/11 04:50:51;;;;;;;1.80;0.70;;;10.70;93.00;;;;;;6276752;22;20733;-90
2023/12/11 04:53:18;;;;;;;1.63;0.60;;;10.70;92.90;;;;;;6277610;22;20471;-90
2023/12/11 04:55:45;;;;;;;2.03;0.70;;;10.70;92.90;;;;;;6277592;22;20467;-91
2023/12/11 04:58:11;;;;;;;2.20;1.03;;;10.60;92.70;;;;;;6278029;22;20431;-91
2023/12/11 05:00:38;;;;;;;1.80;0.70;;;10.60;92.60;;;;;;6277492;22;20428;-91
2023/12/11 05:03:06;;;;;;;1.87;0.87;;;10.60;92.30;;;;;;6277979;22;20200;-92
2023/12/11 05:05:34;;;;;;;1.90;0.87;;;10.70;92.30;;;;;;6278035;22;20443;-90
2023/12/11 05:08:01;;;;;;;1.70;0.70;;;10.60;92.00;;;;;;6277818;22;20432;-92
2023/12/11 05:10:28;;;;;;;2.20;0.80;;;10.60;91.90;;;;;;6277639;22;20426;-92
2023/12/11 05:12:55;;;;;;;2.37;0.90;;;10.60;91.90;;;;;;6277843;22;20200;-93
2023/12/11 05:15:22;;;;;;;1.80;0.70;;;10.60;91.80;;;;;;6278018;22;20416;-90
2023/12/11 05:17:49;;;;;;;2.10;0.80;;;10.60;91.70;;;;;;6277889;22;20397;-92
2023/12/11 05:20:18;;;;;;;1.90;0.80;;;10.60;91.70;;;;;;6277947;22;20882;-92
2023/12/11 05:22:46;;;;;;;1.70;0.80;;;10.60;91.80;;;;;;6277578;22;20399;-92
2023/12/11 05:25:13;;;;;;;2.27;0.60;;;10.50;91.80;;;;;;6277701;22;20392;-91
2023/12/11 05:27:40;;;;;;;2.33;0.90;;;10.50;91.70;;;;;;6277256;22;20510;-93
2023/12/11 05:30:08;;;;;;;1.83;0.73;;;10.50;91.80;;;;;;6277236;22;20897;-90
2023/12/11 05:32:35;;;;;;;3.13;1.00;;;10.50;91.80;;;;;;6277442;22;20427;-90
2023/12/11 05:35:03;;;;;;;1.77;0.70;;;10.50;91.80;;;;;;6277298;22;20468;-91
2023/12/11 05:37:31;;;;;;;1.90;0.98;;;10.50;91.70;;;;;;6277273;22;20408;-90
2023/12/11 05:39:58;;;;;;;1.90;0.90;;;10.50;91.70;;;;;;6276852;22;20664;-88
2023/12/11 05:42:25;;;;;;;2.58;1.10;;;10.50;91.70;;;;;;6273630;22;20650;-91
2023/12/11 05:44:52;;;;;;;1.80;0.73;;;10.50;91.80;;;;;;6275444;22;20229;-90
2023/12/11 05:47:19;;;;;;;2.00;0.80;;;10.50;91.90;;;;;;6275568;22;20459;-89
2023/12/11 05:49:46;;;;;;;2.20;0.83;;;10.50;92.00;;;;;;6276454;22;20430;-90
2023/12/11 05:52:13;;;;;;;2.73;1.20;;;10.50;92.00;;;;;;6276747;22;20424;-91
2023/12/11 05:54:41;;;;;;;1.80;0.70;;;10.50;91.80;;;;;;6276833;22;20412;-92
2023/12/11 05:57:08;;;;;;;1.90;0.90;;;10.50;91.80;;;;;;6276529;22;20476;-87
2023/12/11 05:59:34;;;;;;;2.13;1.23;;;10.50;91.90;;;;;;6276599;22;20432;-91
2023/12/11 06:02:01;;;;;;;2.33;1.20;;;10.50;91.80;;;;;;6276679;22;20204;-90
2023/12/11 06:04:28;;;;;;;2.10;0.93;;;10.60;92.00;;;;;;6276338;22;20890;-90
2023/12/11 06:06:55;;;;;;;2.03;0.90;;;10.60;92.10;;;;;;6276083;22;20480;-89
2023/12/11 06:09:22;;;;;;;1.80;0.70;;;10.60;92.20;;;;;;6276601;22;20427;-91
2023/12/11 06:11:50;;;;;;;2.20;0.77;;;10.60;92.30;;;;;;6276605;22;20420;-92
2023/12/11 06:14:17;;;;;;;2.10;1.00;;;10.60;92.40;;;;;;6276663;22;20463;-90
2023/12/11 06:16:44;;;;;;;3.60;1.13;;;10.70;92.60;;;;;;6276491;22;20396;-89
2023/12/11 06:19:11;;;;;;;2.30;1.00;;;10.70;92.70;;;;;;6276843;22;20427;-91
2023/12/11 06:21:38;;;;;;;1.80;0.80;;;10.70;92.80;;;;;;6276771;22;20495;-91
2023/12/11 06:24:06;;;;;;;1.70;0.70;;;10.70;93.10;;;;;;6276413;22;20442;-92
2023/12/11 06:26:34;;;;;;;1.87;0.70;;;10.80;93.10;;;;;;6275688;22;20393;-91
2023/12/11 06:29:02;;;;;;;1.77;0.80;;;10.80;93.30;;;;;;6276133;22;20436;-91
2023/12/11 06:31:30;;;;;;;1.90;0.83;;;10.90;93.40;;;;;;6272985;22;20486;-91
2023/12/11 06:33:57;;;;;;;2.07;0.93;;;10.90;93.50;;;;;;6275658;22;20450;-90
2023/12/11 06:36:25;;;;;;;2.67;1.17;;;10.90;93.50;;;;;;6276063;22;20466;-81
2023/12/11 06:38:52;;;;;;;1.90;0.80;;;11.00;93.40;;;;;;6276053;22;20391;-90
2023/12/11 06:41:19;;;;;;;1.97;0.70;;;10.90;93.40;;;;;;6275655;22;20950;-90
2023/12/11 06:43:48;;;;;;;2.90;1.50;;;10.90;93.40;;;;;;6275819;22;20396;-91
2023/12/11 06:46:17;;;;;;;4.03;2.17;;;10.90;93.30;;;;;;6275405;22;20411;-91
2023/12/11 06:48:44;;;;;;;3.00;1.57;;;10.90;92.60;;;;;;6275777;22;20526;-92
2023/12/11 06:51:11;;;;;;;2.83;1.23;;;10.90;92.70;;;;;;6276844;22;20384;-92
2023/12/11 06:53:38;;;;;;;4.53;1.27;;;10.80;92.70;;;;;;6275857;22;20427;-89
2023/12/11 06:56:05;;;;;;;2.20;1.10;;;10.70;92.70;;;;;;6275363;22;20761;-90
2023/12/11 06:58:32;;;;;;;3.40;1.30;;;10.70;92.90;;;;;;6275790;22;20174;-91
2023/12/11 07:00:59;;;;;;;2.00;0.73;;;10.70;93.00;;;;;;6276190;22;20422;-91
2023/12/11 07:03:27;;;;;;;4.63;1.00;;;10.60;93.20;;;;;;6275006;22;20476;-91
2023/12/11 07:05:54;;;;;;;2.05;0.98;;;10.60;93.40;;;;;;6275382;22;20255;-93
2023/12/11 07:08:22;;;;;;;3.70;1.73;;;10.60;93.50;;;;;;6274772;22;20663;-91
2023/12/11 07:10:49;;;;;;;3.17;2.20;;;10.70;93.50;;;;;;6271068;22;20402;-93
2023/12/11 07:13:16;;;;;;;2.30;1.10;;;10.60;93.40;;;;;;6273497;22;20396;-92
2023/12/11 07:15:43;;;;;;;4.23;1.20;;;10.60;93.50;;;;;;6272528;22;20395;-92
2023/12/11 07:18:13;;;;;;;2.15;1.15;;;10.70;93.40;;;;;;6275843;22;20431;-92
2023/12/11 07:20:41;;;;;;;2.40;1.10;;;10.70;92.80;;;;;;6276187;22;20659;-91
2023/12/11 07:23:10;;;;;;;2.50;1.20;;;10.60;92.50;;;;;;6275964;22;20388;-91
2023/12/11 07:25:36;;;;;;;2.23;1.30;;;10.60;92.30;;;;;;6276498;22;20392;-91
2023/12/11 07:28:03;;;;;;;2.93;1.77;;;10.60;92.50;;;;;;6275999;22;20450;-92
2023/12/11 07:30:30;;;;;;;3.53;1.57;;;10.50;92.40;;;;;;6276262;22;20391;-91
2023/12/11 07:32:57;;;;;;;3.10;1.70;;;10.50;92.40;;;;;;6276367;22;20419;-91
2023/12/11 07:35:24;;;;;;;3.10;2.10;;;10.40;92.50;;;;;;6276021;22;20519;-91
2023/12/11 07:37:53;;;;;;;4.70;3.63;;;10.40;91.80;;;;;;6275641;22;20400;-92
2023/12/11 07:40:19;;;;;;;2.88;1.55;;;10.40;91.80;;;;;;6276041;22;20863;-90
2023/12/11 07:42:46;;;;;;;3.13;2.35;;;10.40;91.10;;;;;;6276427;22;20165;-91
2023/12/11 07:45:14;;;;;;;4.38;3.28;;;10.30;91.10;;;;;;6276143;22;20219;-84
2023/12/11 07:47:41;;;;;;;3.77;2.20;;;10.20;90.60;;;;;;6275696;22;20264;-92
2023/12/11 07:50:09;;;;;;;2.80;2.20;;;10.10;90.60;;;;;;6274393;22;20396;-90
2023/12/11 07:52:36;;;;;;;4.20;3.10;;;10.10;90.70;;;;;;6275452;22;20166;-90
2023/12/11 07:55:05;;;;;;;3.10;2.60;;;10.00;90.50;;;;;;6276029;22;20419;-91
2023/12/11 07:57:32;;;;;;;4.47;2.43;;;9.90;91.00;;;;;;6276525;22;20870;-91
2023/12/11 07:59:59;;;;;;;2.90;1.73;;;9.90;90.90;;;;;;6278330;22;20440;-91
2023/12/11 08:02:26;;;;;;;2.90;1.67;;;9.80;91.10;;;;;;6277999;22;20900;-92
2023/12/11 08:04:53;;;;;;;3.15;1.40;;;9.70;91.10;;;;;;6278400;22;20161;-91
2023/12/11 08:07:19;;;;;;;2.95;1.20;;;9.70;91.10;;;;;;6278340;22;20193;-89
2023/12/11 08:09:47;;;;;;;2.20;1.10;;;9.70;91.10;;;;;;6277759;22;20712;-91
2023/12/11 08:12:16;;;;;;;2.85;1.60;;;9.60;91.10;;;;;;6277876;22;20165;-88
2023/12/11 08:14:42;;;;;;;2.80;1.20;;;9.50;91.40;;;;;;6278334;22;20165;-90
2023/12/11 08:17:10;;;;;;;2.75;1.30;;;9.40;91.60;;;;;;6278247;22;20200;-89
2023/12/11 08:19:37;;;;;;;3.13;1.77;;;9.30;92.00;;;;;;6277829;22;20620;-90
2023/12/11 08:22:04;;;;;;;2.78;1.58;;;9.30;92.40;;;;;;6278171;22;20542;-90
2023/12/11 08:24:31;;;;;;;2.35;1.42;;;9.20;92.20;;;;;;6278212;22;20165;-92
2023/12/11 08:26:58;;;;;;;2.15;1.30;;;9.20;92.70;;;;;;6278070;22;20632;-91
2023/12/11 08:29:26;;;;;;;2.45;1.20;;;9.20;93.10;;;;;;6277693;22;20212;-90
2023/12/11 08:31:53;;;;;;;3.05;1.63;;;9.20;93.60;;;;;;6277615;22;20616;-90
2023/12/11 08:34:20;;;;;;;2.90;2.10;;;9.20;93.70;;;;;;6278076;22;20196;-90
2023/12/11 08:36:47;;;;;;;2.83;1.70;;;9.30;94.30;;;;;;6278075;22;20184;-91
2023/12/11 08:39:14;;;;;;;2.92;1.50;;;9.30;94.60;;;;;;6278052;22;20588;-90
2023/12/11 08:41:41;;;;;;;2.35;1.30;;;9.30;95.00;;;;;;6278427;22;20537;-91
2023/12/11 08:44:08;;;;;;;2.28;1.30;;;9.30;95.50;;;;;;6277908;22;20216;-89
2023/12/11 08:46:37;;;;;;;2.30;1.30;;;9.40;95.90;;;;;;6278173;22;20162;-89
2023/12/11 08:49:04;;;;;;;2.20;1.30;;;9.50;96.30;;;;;;6277463;22;20226;-90
2023/12/11 08:51:31;;;;;;;2.60;1.60;;;9.40;96.10;;;;;;6277830;22;20165;-90
2023/12/11 08:53:57;;;;;;;2.17;1.13;;;9.50;96.40;;;;;;6278002;22;20166;-84
2023/12/11 08:56:24;;;;;;;2.55;1.15;;;9.50;96.50;;;;;;6278024;22;20165;-91
2023/12/11 08:58:51;;;;;;;2.85;1.25;;;9.60;96.50;;;;;;6277803;22;20166;-91
2023/12/11 09:01:18;;;;;;;2.50;1.20;;;9.60;96.40;;;;;;6278216;22;20287;-91
2023/12/11 09:03:47;;;;;;;4.72;1.38;;;9.70;96.50;;;;;;6277680;22;20204;-91
2023/12/11 09:06:14;;;;;;;4.45;1.70;;;9.70;96.50;;;;;;6277813;22;20165;-90
2023/12/11 09:08:41;;;;;;;3.25;1.52;;;9.80;96.50;;;;;;6277473;22;20576;-91
2023/12/11 09:11:08;;;;;;;2.75;1.70;;;9.90;96.60;;;;;;6277805;22;20161;-90
2023/12/11 09:13:35;;;;;;;2.75;0.95;;;10.00;96.20;;;;;;6277420;22;20169;-92
2023/12/11 09:16:03;;;;;;;1.85;0.90;;;10.10;96.20;;;;;;6277382;22;20173;-91
2023/12/11 09:18:30;;;;;;;1.90;0.77;;;10.20;96.10;;;;;;6277667;22;20166;-91
2023/12/11 09:20:58;;;;;;;2.10;1.00;;;10.20;96.00;;;;;;6277752;22;20396;-89
2023/12/11 09:23:25;;;;;;;2.63;1.07;;;10.30;96.30;;;;;;6277220;22;20432;-91
2023/12/11 09:25:52;;;;;;;2.30;1.10;;;10.40;96.30;;;;;;6277505;22;20415;-91
2023/12/11 09:28:19;;;;;;;2.55;1.08;;;10.40;96.40;;;;;;6276997;22;20216;-93
2023/12/11 09:30:46;;;;;;;2.60;0.90;;;10.50;96.40;;;;;;6277563;22;20197;-89
2023/12/11 09:33:13;;;;;;;2.00;1.05;;;10.50;96.20;;;;;;6277749;22;20412;-89
2023/12/11 09:35:41;;;;;;;2.30;1.27;;;10.50;96.00;;;;;;6277366;22;20241;-89
2023/12/11 09:38:10;;;;;;;2.10;1.00;;;10.50;96.00;;;;;;6277490;22;20244;-90
2023/12/11 09:40:37;;;;;;;2.13;1.17;;;10.50;96.10;;;;;;6277411;22;20423;-89
2023/12/11 09:43:04;;;;;;;2.00;1.20;;;10.50;95.70;;;;;;6277309;22;20424;-89
2023/12/11 09:45:32;;;;;;;2.90;1.10;;;10.50;95.80;;;;;;6276800;22;20576;-91
2023/12/11 09:47:59;;;;;;;4.03;1.40;;;10.50;95.80;;;;;;6276770;22;20420;-90
2023/12/11 09:50:26;;;;;;;2.63;1.20;;;10.40;95.90;;;;;;6277238;22;20388;-89
2023/12/11 09:52:55;;;;;;;2.20;1.00;;;10.40;96.10;;;;;;6276810;22;20481;-91
2023/12/11 09:55:23;;;;;;;3.10;1.08;;;10.40;96.20;;;;;;6276886;22;20389;-89
2023/12/11 09:57:51;;;;;;;2.90;1.60;;;10.30;96.50;;;;;;6276864;22;20165;-90
2023/12/11 10:00:19;;;;;;;2.70;1.50;;;10.30;96.60;;;;;;6277152;22;20396;-90
2023/12/11 10:02:50;;;;;;;4.10;2.17;;;10.40;96.30;;;;;;6277212;22;20234;-90
2023/12/11 10:05:25;;;;;;;4.37;1.73;;;10.30;96.80;;;;;;6276766;22;20855;-90
2023/12/11 10:07:52;;;;;;;3.67;1.50;;;10.30;96.80;;;;;;6276838;22;20445;-89
2023/12/11 10:10:23;;;;;;;2.85;1.10;;;10.20;97.00;;;;;;6276940;22;20228;-88
2023/12/11 10:12:50;;;;;;;2.10;1.30;;;10.20;97.00;;;;;;6276742;22;20557;-89
2023/12/11 10:15:21;;;;;;;2.50;0.97;;;10.20;96.90;;;;;;6276610;22;20165;-89
2023/12/11 10:18:02;;;;;;;2.67;1.50;;;10.20;97.10;;;;;;6277097;22;20446;-89
2023/12/11 10:20:29;;;;;;;3.13;1.60;;;10.20;97.20;;;;;;6276506;22;20603;-88
2023/12/11 10:22:56;;;;;;;3.67;2.05;;;10.20;97.20;;;;;;6277044;22;20388;-90
2023/12/11 10:25:30;;;;;;;2.20;1.33;;;10.20;97.10;;;;;;6276610;22;20473;-89
2023/12/11 10:28:08;;;;;;;2.97;1.60;;;10.30;96.70;;;;;;6276514;22;20931;-89
2023/12/11 10:30:50;;;;;;;3.13;1.00;;;10.30;96.30;;;;;;6276959;22;20192;-90
2023/12/11 10:33:16;;;;;;;2.10;0.95;;;10.30;96.20;;;;;;6276527;22;20419;-88
2023/12/11 10:35:43;;;;;;;2.70;1.30;;;10.40;96.00;;;;;;6277112;22;20477;-89
2023/12/11 10:38:10;;;;;;;2.10;0.93;;;10.40;96.00;;;;;;6276545;22;20396;-89
2023/12/11 10:40:40;;;;;;;7.88;5.40;;;10.40;95.40;;;;;;6276519;22;20478;-89
2023/12/11 10:43:07;;;;;;;4.67;2.23;;;10.40;95.20;;;;;;6276740;22;20165;-89
2023/12/11 10:45:34;;;;;;;4.47;3.13;;;10.40;95.40;;;;;;6277011;22;20447;-89
2023/12/11 10:48:03;;;;;;;2.40;1.80;;;10.40;95.40;;;;;;6276878;22;20240;-89
2023/12/11 10:50:31;;;;;;;3.13;2.30;;;10.40;95.40;;;;;;6276749;22;20197;-88
2023/12/11 10:53:01;;;;;;;4.10;3.10;;;10.40;95.10;;;;;;6276737;22;20757;-88
2023/12/11 10:55:29;;;;;;;2.63;1.67;;;10.50;94.90;;;;;;6276826;22;20750;-89
2023/12/11 10:57:58;;;;;;;2.30;1.10;;;10.40;94.70;;;;;;6276738;22;20502;-88
2023/12/11 11:00:27;;;;;;;2.47;1.27;;;10.40;94.80;;;;;;6276701;22;20197;-88
2023/12/11 11:02:57;;;;;;;2.00;1.08;;;10.30;94.40;;;;;;6277009;22;20754;-88
2023/12/11 11:05:28;;;;;;;2.80;0.82;;;10.30;94.20;;;;;;6276731;22;20168;-86
2023/12/11 11:08:02;;;;;;;3.03;0.90;;;10.30;94.30;;;;;;6276823;22;20202;-88
2023/12/11 11:10:34;;;;;;;5.10;2.37;;;10.30;94.40;;;;;;6277170;22;20448;-87
2023/12/11 11:13:09;;;;;;;7.68;5.07;;;10.30;94.40;;;;;;6276829;22;20696;-88
2023/12/11 11:15:35;;;;;;;5.03;3.70;;;10.30;93.90;;;;;;6276881;22;20158;-88
2023/12/11 11:18:05;;;;;;;2.55;1.52;;;10.30;93.60;;;;;;6276822;22;20218;-88
2023/12/11 11:20:32;;;;;;;4.30;2.40;;;10.20;93.50;;;;;;6276713;22;20627;-88
2023/12/11 11:23:22;;;;;;;3.40;1.20;;;10.20;93.70;;;;;;6276450;22;20204;-88
2023/12/11 11:25:53;;;;;;;2.28;0.98;;;10.20;93.70;;;;;;6276500;22;20165;-89
2023/12/11 11:28:41;;;;;;;1.98;0.95;;;10.20;93.50;;;;;;6276919;22;20153;-88
2023/12/11 11:31:08;;;;;;;3.45;2.38;;;10.20;93.40;;;;;;6276549;22;20154;-87
2023/12/11 11:33:46;;;;;;;2.40;1.25;;;10.20;93.40;;;;;;6278070;22;20656;-88
2023/12/11 11:36:17;;;;;;;3.53;2.05;;;10.20;93.50;;;;;;6279151;22;20165;-87
2023/12/11 11:38:56;;;;;;;2.10;1.10;;;10.20;93.70;;;;;;6278941;22;20161;-88
2023/12/11 11:41:26;;;;;;;4.18;3.78;;;10.10;93.60;;;;;;6278877;22;20166;-88
2023/12/11 11:44:00;;;;;;;4.85;2.28;;;10.10;93.40;;;;;;6277026;22;20518;-88
2023/12/11 11:46:27;;;;;;;2.78;2.00;;;10.10;93.60;;;;;;6278861;22;20153;-89
2023/12/11 11:48:54;;;;;;;2.95;1.65;;;10.10;93.80;;;;;;6278266;22;20679;-87
2023/12/11 11:51:22;;;;;;;2.80;1.40;;;10.10;93.60;;;;;;6279088;22;20500;-88
2023/12/11 11:53:55;;;;;;;3.10;1.30;;;10.10;93.40;;;;;;6278693;22;20246;-88
2023/12/11 11:56:21;;;;;;;2.67;1.40;;;10.00;93.30;;;;;;6278673;22;20377;-89
2023/12/11 11:58:48;;;;;;;4.20;2.10;;;10.00;92.80;;;;;;6278267;22;20449;-86
2023/12/11 12:01:17;;;;;;;2.97;1.50;;;9.90;93.60;;;;;;6278188;22;20662;-87
2023/12/11 12:03:44;;;;;;;3.50;2.78;;;9.90;94.00;;;;;;6278543;22;20204;-86
2023/12/11 12:06:11;;;;;;;3.13;2.03;;;10.00;93.40;;;;;;6278491;22;20162;-86
2023/12/11 12:08:46;;;;;;;2.30;1.65;;;9.90;94.30;;;;;;6278481;22;20177;-87
2023/12/11 12:11:13;;;;;;;3.78;1.50;;;9.90;94.50;;;;;;6278761;22;20149;-85
2023/12/11 12:13:40;;;;;;;3.42;2.20;;;9.90;94.50;;;;;;6278478;22;20185;-86
2023/12/11 12:16:08;;;;;;;4.28;1.85;;;9.90;94.40;;;;;;6278142;22;20166;-86
2023/12/11 12:18:36;;;;;;;5.07;2.00;;;9.90;94.30;;;;;;6278645;22;20197;-86
2023/12/11 12:21:04;;;;;;;2.67;1.42;;;9.90;94.00;;;;;;6278384;22;20201;-86
2023/12/11 12:23:31;;;;;;;3.22;1.30;;;9.90;94.10;;;;;;6278145;22;20165;-85
2023/12/11 12:26:00;;;;;;;2.43;1.07;;;9.90;94.30;;;;;;6278558;22;20165;-86
2023/12/11 12:28:27;;;;;;;2.85;1.25;;;10.00;93.60;;;;;;6278406;22;20716;-85
2023/12/11 12:30:55;;;;;;;3.07;1.00;;;10.00;93.50;;;;;;6278175;22;20185;-85
2023/12/11 12:33:23;;;;;;;2.38;1.20;;;10.00;93.40;;;;;;6277958;22;20431;-85
2023/12/11 12:35:52;;;;;;;2.47;1.60;;;10.10;93.10;;;;;;6278080;22;20211;-85
2023/12/11 12:38:19;;;;;;;3.25;1.55;;;10.10;93.30;;;;;;6277631;22;20478;-85
2023/12/11 12:40:47;;;;;;;2.00;0.90;;;10.10;93.50;;;;;;6278251;22;20169;-86
2023/12/11 12:43:14;;;;;;;1.80;0.70;;;10.10;93.30;;;;;;6277627;22;20165;-85
2023/12/11 12:45:42;;;;;;;2.30;1.35;;;10.00;93.20;;;;;;6278346;22;20243;-85
2023/12/11 12:48:09;;;;;;;2.55;1.25;;;10.00;93.20;;;;;;6277856;22;20244;-85
2023/12/11 12:50:36;;;;;;;5.30;1.30;;;10.00;93.40;;;;;;6278228;22;20220;-85
2023/12/11 12:53:06;;;;;;;2.63;1.50;;;9.90;93.90;;;;;;6277781;22;20223;-85